Time;durP1;ratioP1;P1;durP2;ratioP2;P2;SDS_P1;SDS_P2;PMS_P1;PMS_P2;Temp;Humidity;BMP_temperature;BMP_pressure;BME280_temperature;BME280_humidity;BME280_pressure;Samples;Min_cycle;Max_cycle;Signal;HPM_P1;HPM_P2
2022/04/23 00:04:14;;;;;;;2.95;1.60;;;;;;;19.69;31.75;100283.31;16135486;19;129555;-54
2022/04/23 00:09:36;;;;;;;3.08;1.65;;;;;;;19.67;31.35;100278.03;16149375;19;129326;-62
2022/04/23 00:14:58;;;;;;;2.67;1.63;;;;;;;19.66;31.32;100272.75;16143843;19;130610;-68
2022/04/23 00:20:23;;;;;;;2.00;1.48;;;;;;;19.63;31.75;100271.34;16148063;19;129814;-65
2022/04/23 00:25:50;;;;;;;2.17;1.90;;;;;;;19.61;31.50;100269.94;16148554;19;129257;-58
2022/04/23 00:31:14;;;;;;;2.78;2.30;;;;;;;19.60;31.35;100269.09;16145152;19;128960;-58
2022/04/23 00:36:36;;;;;;;4.60;1.75;;;;;;;19.57;31.39;100264.09;16148122;19;129441;-58
2022/04/23 00:42:00;;;;;;;3.33;1.90;;;;;;;19.54;31.40;100261.88;16144334;19;128840;-58
2022/04/23 00:47:22;;;;;;;2.63;1.92;;;;;;;19.53;31.61;100262.97;16148375;19;129765;-60
2022/04/23 00:52:44;;;;;;;3.20;2.05;;;;;;;19.52;31.33;100261.28;16145782;19;129559;-57
2022/04/23 00:58:06;;;;;;;3.83;2.13;;;;;;;19.50;31.49;100257.94;16147637;19;129514;-58
2022/04/23 01:03:28;;;;;;;3.25;2.03;;;;;;;19.49;31.78;100256.28;16147153;19;129493;-57
2022/04/23 01:08:51;;;;;;;2.33;1.63;;;;;;;19.48;31.50;100255.47;16146111;19;130620;-58
2022/04/23 01:14:12;;;;;;;2.88;1.60;;;;;;;19.46;31.79;100257.66;16141349;19;129850;-58
2022/04/23 01:19:34;;;;;;;2.40;2.15;;;;;;;19.44;31.86;100250.72;16142891;19;129203;-56
2022/04/23 01:24:57;;;;;;;2.63;2.10;;;;;;;19.43;31.66;100249.03;16146316;19;129570;-58
2022/04/23 01:30:19;;;;;;;4.45;2.20;;;;;;;19.41;31.38;100259.56;16142732;19;130771;-58
2022/04/23 01:35:42;;;;;;;2.35;1.88;;;;;;;19.39;31.59;100259.81;16144415;19;129707;-58
2022/04/23 01:41:04;;;;;;;2.75;2.20;;;;;;;19.38;31.57;100255.41;16142051;19;129223;-58
2022/04/23 01:46:25;;;;;;;4.13;2.05;;;;;;;19.37;31.39;100249.00;16144957;19;130089;-58
2022/04/23 01:51:47;;;;;;;2.53;1.80;;;;;;;19.36;31.78;100247.31;16144248;19;129827;-57
2022/04/23 01:57:09;;;;;;;2.88;2.50;;;;;;;19.35;31.74;100251.19;16143947;19;132505;-58
2022/04/23 02:02:30;;;;;;;4.05;2.40;;;;;;;19.33;31.91;100253.41;16140849;19;130110;-58
2022/04/23 02:07:52;;;;;;;2.92;2.38;;;;;;;19.33;31.62;100249.81;16144867;19;130346;-58
2022/04/23 02:13:14;;;;;;;2.70;2.00;;;;;;;19.30;31.45;100251.19;16140334;19;129803;-58
2022/04/23 02:18:39;;;;;;;2.33;2.13;;;;;;;19.30;31.90;100256.72;16143885;19;129674;-57
2022/04/23 02:24:04;;;;;;;3.20;2.17;;;;;;;19.30;31.82;100248.41;16140717;19;129386;-58
2022/04/23 02:29:25;;;;;;;2.70;2.10;;;;;;;19.28;31.78;100249.75;16135956;19;130115;-58
2022/04/23 02:34:47;;;;;;;2.50;2.15;;;;;;;19.25;31.81;100245.59;16140376;19;130266;-58
2022/04/23 02:40:09;;;;;;;3.53;2.45;;;;;;;19.25;31.50;100255.88;16139521;19;128909;-58
2022/04/23 02:45:32;;;;;;;3.13;2.22;;;;;;;19.22;31.68;100257.22;16141650;19;129534;-58
2022/04/23 02:50:54;;;;;;;2.78;1.80;;;;;;;19.22;31.85;100254.44;16136948;19;130021;-58
2022/04/23 02:56:17;;;;;;;2.10;1.90;;;;;;;19.21;32.01;100255.53;16135901;19;129980;-58
2022/04/23 03:01:39;;;;;;;4.72;2.22;;;;;;;19.20;31.92;100242.78;16133976;19;129550;-58
2022/04/23 03:07:03;;;;;;;2.70;2.17;;;;;;;19.20;31.88;100242.78;16132222;19;130231;-57
2022/04/23 03:12:25;;;;;;;3.70;1.85;;;;;;;19.20;31.73;100245.56;16132052;19;131347;-58
2022/04/23 03:17:47;;;;;;;3.88;2.55;;;;;;;19.17;31.65;100244.13;16134844;19;129386;-57
2022/04/23 03:23:09;;;;;;;3.08;2.60;;;;;;;19.17;31.59;100235.81;16128617;19;129589;-58
2022/04/23 03:28:31;;;;;;;3.15;2.40;;;;;;;19.15;31.60;100237.19;16132843;19;129792;-58
2022/04/23 03:33:53;;;;;;;2.67;2.33;;;;;;;19.13;32.05;100234.69;16135922;19;130272;-58
2022/04/23 03:39:15;;;;;;;2.58;2.13;;;;;;;19.13;31.70;100231.06;16133113;19;130355;-57
2022/04/23 03:44:36;;;;;;;3.13;2.10;;;;;;;19.12;32.07;100234.94;16133601;19;130418;-58
2022/04/23 03:50:06;;;;;;;4.03;2.35;;;;;;;19.12;31.90;100229.38;16135220;19;129902;-58
2022/04/23 03:55:30;;;;;;;2.65;2.28;;;;;;;19.08;32.05;100218.81;16129018;19;129452;-58
2022/04/23 04:00:51;;;;;;;4.47;2.60;;;;;;;19.07;31.77;100219.97;16130936;19;130624;-58
2022/04/23 04:06:13;;;;;;;2.92;2.65;;;;;;;19.07;31.81;100224.66;16133274;19;128957;-58
2022/04/23 04:17:15;;;;;;;3.10;2.35;;;;;;;19.04;31.79;100216.84;16134250;19;129462;-57
2022/04/23 04:22:41;;;;;;;3.20;2.60;;;;;;;19.05;31.79;100215.75;16129685;19;129427;-57
2022/04/23 04:28:04;;;;;;;2.50;2.15;;;;;;;19.02;31.63;100213.50;16132090;19;129389;-56
2022/04/23 04:33:25;;;;;;;2.92;2.40;;;;;;;19.01;32.11;100214.63;16132245;19;130149;-58
2022/04/23 04:38:47;;;;;;;3.55;2.42;;;;;;;19.01;31.68;100217.41;16132099;19;129778;-57
2022/04/23 04:44:09;;;;;;;2.40;2.20;;;;;;;18.99;31.94;100214.88;16125347;19;129552;-57
2022/04/23 04:49:31;;;;;;;2.15;1.85;;;;;;;18.99;31.98;100212.13;16133254;19;129860;-58
2022/04/23 04:54:53;;;;;;;2.50;2.30;;;;;;;18.99;32.16;100220.44;16141516;19;130225;-58
2022/04/23 05:00:15;;;;;;;2.72;2.17;;;;;;;18.98;31.82;100217.94;16146522;19;133398;-58
2022/04/23 05:05:37;;;;;;;2.30;1.92;;;;;;;18.96;31.86;100226.50;16140857;19;129932;-57
2022/04/23 05:10:59;;;;;;;3.97;2.60;;;;;;;18.95;32.20;100232.31;16144839;19;128960;-58
2022/04/23 05:16:21;;;;;;;2.42;1.92;;;;;;;18.93;31.87;100221.50;16145249;19;130715;-58
2022/04/23 05:21:43;;;;;;;4.72;2.10;;;;;;;18.93;31.94;100227.06;16141956;19;130191;-58
2022/04/23 05:27:05;;;;;;;2.67;2.17;;;;;;;;;;16145118;19;130052;-58
2022/04/23 05:32:26;;;;;;;3.08;2.30;;;;;;;18.91;31.98;100218.16;16145782;19;129925;-58
2022/04/23 05:37:50;;;;;;;4.43;2.80;;;;;;;18.91;32.07;100212.63;16144776;19;130222;-58
2022/04/23 05:43:12;;;;;;;2.53;2.10;;;;;;;19.09;32.13;100219.69;16140773;19;130028;-56
2022/04/23 05:48:37;;;;;;;4.00;2.13;;;;;;;19.36;31.95;100225.13;16143328;19;130427;-57
2022/04/23 05:53:58;;;;;;;2.25;2.05;;;;;;;19.65;31.45;100216.41;16139263;19;131051;-57
2022/04/23 05:59:28;;;;;;;2.35;1.88;;;;;;;19.95;31.36;100225.13;16142637;19;128971;-58
2022/04/23 06:04:50;;;;;;;2.28;1.88;;;;;;;20.17;30.70;100224.97;16140836;19;129479;-58
2022/04/23 06:10:13;;;;;;;2.13;1.90;;;;;;;20.33;30.73;100214.72;16142003;19;129615;-57
2022/04/23 06:15:34;;;;;;;2.38;1.88;;;;;;;20.38;30.82;100216.66;16143424;19;129695;-58
2022/04/23 06:20:56;;;;;;;2.08;1.88;;;;;;;20.38;30.39;100219.44;16138953;19;130564;-58
2022/04/23 06:26:18;;;;;;;2.42;1.98;;;;;;;20.33;30.48;100219.41;16140639;19;129350;-58
2022/04/23 06:31:40;;;;;;;3.08;2.17;;;;;;;20.24;30.53;100208.84;16141348;19;130548;-58
2022/04/23 06:37:02;;;;;;;2.35;2.13;;;;;;;20.17;31.06;100204.66;16140723;19;129472;-58
2022/04/23 06:42:24;;;;;;;3.55;2.65;;;;;;;20.07;30.92;100211.88;16137517;19;129028;-58
2022/04/23 06:47:46;;;;;;;2.67;2.35;;;;;;;20.00;31.20;100211.28;16140610;19;129840;-57
2022/04/23 06:53:07;;;;;;;4.40;2.53;;;;;;;19.92;30.94;100204.31;16135553;19;129993;-58
2022/04/23 06:58:30;;;;;;;6.45;2.53;;;;;;;19.98;31.14;100203.22;16135668;19;129817;-58
2022/04/23 07:03:52;;;;;;;6.32;3.17;;;;;;;20.05;31.25;100191.88;16134167;19;129902;-57
2022/04/23 07:09:14;;;;;;;8.77;3.35;;;;;;;20.11;30.95;100184.38;16136879;19;129563;-58
2022/04/23 07:14:35;;;;;;;5.53;3.67;;;;;;;20.17;31.39;100186.09;16133689;19;129596;-58
2022/04/23 07:20:01;;;;;;;11.82;3.92;;;;;;;20.22;31.39;100176.91;16136283;19;129772;-58
2022/04/23 07:25:23;;;;;;;4.25;3.85;;;;;;;20.28;31.07;100196.09;16137829;19;128842;-57
2022/04/23 07:30:44;;;;;;;4.90;4.07;;;;;;;20.31;30.98;100178.03;16135580;19;130215;-58
2022/04/23 07:41:47;;;;;;;6.35;4.07;;;;;;;20.37;31.24;100182.47;16135302;19;129783;-56
2022/04/23 07:47:09;;;;;;;6.45;4.07;;;;;;;20.39;31.22;100171.09;16134756;19;129321;-57
2022/04/23 07:52:30;;;;;;;5.13;4.35;;;;;;;20.43;31.35;100175.00;16130164;19;132196;-58
2022/04/23 07:57:52;;;;;;;7.18;4.45;;;;;;;20.44;31.21;100176.63;16136539;19;128985;-58
2022/04/23 08:03:15;;;;;;;10.57;4.53;;;;;;;20.45;31.53;100169.97;16132526;19;129189;-58
2022/04/23 08:08:37;;;;;;;6.38;4.18;;;;;;;20.45;31.32;100164.41;16136489;19;129918;-58
2022/04/23 08:13:59;;;;;;;7.20;4.88;;;;;;;20.45;31.37;100158.88;16131318;19;129655;-59
2022/04/23 08:19:21;;;;;;;6.28;4.30;;;;;;;20.46;31.14;100166.09;16132965;19;129546;-58
2022/04/23 08:24:43;;;;;;;6.90;4.55;;;;;;;20.47;31.19;100158.59;16127972;19;129647;-58
2022/04/23 08:35:50;;;;;;;10.30;4.22;;;;;;;20.48;31.60;100166.66;16146692;19;129571;-58
2022/04/23 08:41:12;;;;;;;8.70;4.18;;;;;;;20.48;31.56;100158.31;16143756;19;132321;-57
2022/04/23 08:46:38;;;;;;;5.10;4.20;;;;;;;20.49;31.42;100157.22;16149337;19;130005;-58
2022/04/23 08:52:09;;;;;;;8.13;4.45;;;;;;;20.51;31.37;100162.47;16145992;19;129831;-58
2022/04/23 08:57:32;;;;;;;9.23;4.53;;;;;;;20.50;31.63;100161.66;16145954;19;130150;-58
2022/04/23 09:02:56;;;;;;;7.38;4.60;;;;;;;20.51;31.78;100160.53;16141923;19;129172;-58
2022/04/23 09:08:18;;;;;;;8.82;4.00;;;;;;;20.52;31.66;100159.44;16146731;19;129974;-59
2022/04/23 09:13:40;;;;;;;4.85;3.92;;;;;;;20.51;31.33;100143.88;16140510;19;130059;-58
2022/04/23 09:24:44;;;;;;;9.75;4.22;;;;;;;20.52;31.66;100153.03;16141306;19;129060;-58
2022/04/23 09:30:07;;;;;;;8.90;3.92;;;;;;;20.48;31.70;100154.72;16145842;19;129700;-58
2022/04/23 09:35:29;;;;;;;13.75;4.20;;;;;;;20.41;31.96;100147.47;16141066;19;129509;-58
2022/04/23 09:40:53;;;;;;;10.57;3.80;;;;;;;20.41;31.93;100149.44;16139306;19;130464;-58
2022/04/23 09:46:15;;;;;;;7.65;3.72;;;;;;;20.37;31.98;100153.88;16142062;19;129486;-59
2022/04/23 09:51:37;;;;;;;8.02;4.47;;;;;;;20.41;32.25;100143.88;16143110;19;129746;-58
2022/04/23 09:57:00;;;;;;;12.52;4.72;;;;;;;20.45;32.52;100128.31;16138904;19;131215;-59
2022/04/23 10:02:23;;;;;;;7.40;4.60;;;;;;;20.47;32.63;100142.75;16139628;19;129412;-58
2022/04/23 10:07:49;;;;;;;6.05;3.70;;;;;;;20.48;32.51;100146.38;16139574;19;129420;-58
2022/04/23 10:13:12;;;;;;;;;;;;;;;20.42;32.46;100135.25;16142506;19;129679;-58
2022/04/23 10:18:38;;;;;;;12.35;5.20;;;;;;;20.46;32.60;100135.53;16142723;19;129486;-58
2022/04/23 10:24:10;;;;;;;9.15;5.40;;;;;;;20.48;32.93;100135.28;16140416;19;129230;-58
2022/04/23 10:29:31;;;;;;;10.15;5.10;;;;;;;20.46;32.65;100132.75;16142214;19;129233;-58
2022/04/23 10:34:53;;;;;;;7.07;4.53;;;;;;;20.48;32.80;100133.31;16139555;19;130473;-58
2022/04/23 10:40:17;;;;;;;5.72;4.28;;;;;;;20.49;33.21;100134.16;16141382;19;129571;-59
2022/04/23 10:45:40;;;;;;;7.10;4.68;;;;;;;20.51;33.10;100137.47;16134793;19;130301;-58
2022/04/23 10:51:08;;;;;;;9.38;4.20;;;;;;;20.53;33.14;100133.31;16139033;19;129446;-58
2022/04/23 10:56:34;;;;;;;10.50;4.80;;;;;;;20.52;33.28;100126.09;16135527;19;130708;-58
2022/04/23 11:02:02;;;;;;;;;;;;;;;20.47;33.20;100130.81;16141512;19;130506;-54
2022/04/23 11:13:25;;;;;;;12.38;4.18;;;;;;;20.51;33.34;100127.22;16136436;19;129458;-59
2022/04/23 11:18:50;;;;;;;5.05;3.95;;;;;;;20.49;33.06;100118.31;16141418;19;129877;-60
2022/04/23 11:24:12;;;;;;;4.80;3.90;;;;;;;20.47;33.26;100114.97;16136028;19;129527;-59
2022/04/23 11:29:34;;;;;;;5.32;3.78;;;;;;;20.50;33.36;100108.88;16132512;19;130834;-56
2022/04/23 11:35:04;;;;;;;7.28;4.18;;;;;;;20.54;33.45;100106.34;16126709;19;129814;-58
2022/04/23 11:40:28;;;;;;;11.10;4.25;;;;;;;20.57;33.45;100108.59;16142671;19;130452;-58
2022/04/23 11:45:54;;;;;;;9.15;3.65;;;;;;;20.58;33.01;100105.50;16132018;19;130872;-56
2022/04/23 11:51:18;;;;;;;11.10;4.38;;;;;;;20.55;33.47;100100.53;16132193;19;128994;-58
2022/04/23 11:56:44;;;;;;;11.87;5.30;;;;;;;20.56;33.78;100107.72;15887255;19;3007607;-57
2022/04/23 12:02:23;;;;;;;10.57;6.35;;;;;;;20.64;34.68;100095.22;16125881;19;131012;-58
2022/04/23 12:07:45;;;;;;;7.00;5.35;;;;;;;20.60;34.17;100085.81;16149543;19;129921;-56
2022/04/23 12:13:10;;;;;;;8.65;4.97;;;;;;;20.56;33.67;100082.72;16142570;19;129728;-58
2022/04/23 12:18:32;;;;;;;7.40;4.97;;;;;;;20.50;34.02;100086.63;16172219;19;130430;-58
2022/04/23 12:23:55;;;;;;;12.52;4.88;;;;;;;20.45;33.89;100079.16;16213333;19;130637;-58
2022/04/23 12:40:46;;;;;;;5.88;4.53;;;;;;;20.37;33.79;100076.09;16219078;19;129143;-57
2022/04/23 12:46:09;;;;;;;9.45;4.40;;;;;;;20.31;33.48;100064.16;16152114;19;130009;-58
2022/04/23 12:51:31;;;;;;;7.07;3.72;;;;;;;20.27;33.45;100066.66;16156873;19;130406;-58
2022/04/23 12:56:53;;;;;;;9.50;4.35;;;;;;;20.27;33.70;100058.31;16165304;19;129444;-58
2022/04/23 13:02:15;;;;;;;8.27;3.50;;;;;;;20.27;33.41;100055.56;16164779;19;129155;-58
2022/04/23 13:13:18;;;;;;;7.88;3.88;;;;;;;20.26;33.68;100034.44;16163114;19;129341;-58
2022/04/23 13:18:40;;;;;;;5.80;3.58;;;;;;;20.26;33.46;100042.78;16166165;19;128818;-58
2022/04/23 13:24:02;;;;;;;9.20;3.88;;;;;;;20.23;33.11;100029.44;16161580;19;129492;-58
2022/04/23 13:29:24;;;;;;;9.00;4.25;;;;;;;20.25;33.10;100021.66;16162143;19;128738;-58
2022/04/23 13:34:45;;;;;;;4.95;3.28;;;;;;;20.25;33.43;100024.44;16162863;19;129371;-58
2022/04/23 13:40:09;;;;;;;11.40;4.22;;;;;;;20.24;32.95;100028.31;16162459;19;130500;-58
2022/04/23 13:45:31;;;;;;;6.40;3.63;;;;;;;20.25;33.16;100018.88;16160218;19;129451;-58
2022/04/23 13:50:53;;;;;;;9.07;3.67;;;;;;;20.24;32.84;100021.94;16153591;19;129838;-58
2022/04/23 13:56:15;;;;;;;12.88;3.78;;;;;;;20.23;32.78;100015.56;16145097;19;129128;-58
2022/04/23 14:01:37;;;;;;;7.05;3.90;;;;;;;20.24;32.87;100019.19;16141073;19;131578;-58
2022/04/23 14:12:40;;;;;;;5.47;3.17;;;;;;;20.22;32.67;100005.56;16142334;19;129817;-58
2022/04/23 14:18:02;;;;;;;12.07;3.20;;;;;;;20.19;32.67;100003.31;16145404;19;129602;-57
2022/04/23 14:23:24;;;;;;;9.70;3.63;;;;;;;20.19;33.01;100008.88;16138995;19;129323;-58
2022/04/23 14:28:46;;;;;;;6.65;3.20;;;;;;;20.19;32.56;99996.94;16143442;19;130229;-57
2022/04/23 14:34:08;;;;;;;6.88;3.45;;;;;;;20.17;32.67;100000.03;16142912;19;129588;-58
2022/04/23 14:39:29;;;;;;;6.18;3.60;;;;;;;20.15;32.73;99996.69;16141931;19;129369;-58
2022/04/23 14:44:51;;;;;;;8.45;3.70;;;;;;;20.14;32.47;99990.28;16138419;19;129816;-58
2022/04/23 14:50:16;;;;;;;4.20;3.70;;;;;;;20.13;32.45;99996.13;16142921;19;129214;-58
2022/04/23 14:55:37;;;;;;;5.85;3.42;;;;;;;20.11;32.41;99990.88;16140777;19;129284;-58
2022/04/23 15:00:59;;;;;;;4.10;3.20;;;;;;;20.10;32.44;99988.34;16141220;19;129236;-58
2022/04/23 15:06:22;;;;;;;5.45;2.90;;;;;;;20.09;32.40;99989.47;16134692;19;130017;-57
2022/04/23 15:11:46;;;;;;;4.95;3.20;;;;;;;20.07;32.48;99988.91;16138760;19;129450;-58
2022/04/23 15:17:07;;;;;;;5.90;3.28;;;;;;;20.08;32.25;99979.47;16140322;19;129347;-59
2022/04/23 15:22:29;;;;;;;5.93;3.72;;;;;;;20.07;32.27;99978.63;16138912;19;129752;-58
2022/04/23 15:27:54;;;;;;;6.43;3.20;;;;;;;20.07;32.28;99972.25;16136081;19;129627;-58
2022/04/23 15:33:17;;;;;;;4.60;3.10;;;;;;;20.07;32.19;99977.78;16141910;19;128875;-56
2022/04/23 15:38:45;;;;;;;5.28;2.95;;;;;;;20.07;32.56;99973.09;16141888;19;129382;-58
2022/04/23 15:44:08;;;;;;;3.78;3.20;;;;;;;20.08;32.24;99973.91;16137947;19;129333;-58
2022/04/23 15:49:29;;;;;;;7.07;3.20;;;;;;;20.09;32.52;99981.97;16141325;19;129121;-58
2022/04/23 15:54:51;;;;;;;6.43;3.15;;;;;;;20.07;32.18;99978.63;16137804;19;129262;-58
2022/04/23 16:00:13;;;;;;;8.68;3.28;;;;;;;20.07;31.95;99972.25;16139306;19;129057;-58
2022/04/23 16:05:35;;;;;;;7.00;3.53;;;;;;;20.05;31.96;99969.75;16134319;19;129386;-58
2022/04/23 16:10:58;;;;;;;5.60;3.20;;;;;;;20.05;31.79;99968.94;16138652;19;129600;-58
2022/04/23 16:16:19;;;;;;;4.50;3.55;;;;;;;20.07;31.91;99966.69;16136659;19;128841;-58
2022/04/23 16:21:41;;;;;;;5.32;3.40;;;;;;;20.09;31.85;99970.03;16137075;19;128979;-58
2022/04/23 16:27:04;;;;;;;11.32;3.67;;;;;;;20.10;31.77;99966.13;16130915;19;129624;-58
2022/04/23 16:32:26;;;;;;;6.75;3.33;;;;;;;20.09;31.78;99959.75;16136732;19;128995;-59
2022/04/23 16:49:08;;;;;;;3.42;2.97;;;;;;;20.10;31.47;99957.81;16142433;19;130255;-58
2022/04/23 16:54:29;;;;;;;7.75;3.92;;;;;;;20.10;31.66;99974.47;16148045;19;129049;-59
2022/04/23 16:59:51;;;;;;;6.57;3.60;;;;;;;20.11;31.72;99970.56;16150536;19;129411;-58
2022/04/23 17:05:13;;;;;;;3.97;3.33;;;;;;;20.11;31.47;99959.47;16145955;19;129448;-58
2022/04/23 17:10:35;;;;;;;3.50;3.20;;;;;;;20.11;31.56;99963.09;16149879;19;129355;-58
2022/04/23 17:16:03;;;;;;;6.40;3.22;;;;;;;20.11;31.44;99973.34;16148875;19;128763;-58
2022/04/23 17:21:28;;;;;;;4.07;3.67;;;;;;;20.10;31.64;99963.34;16147955;19;129417;-58
2022/04/23 17:26:52;;;;;;;7.50;3.30;;;;;;;20.09;31.57;99965.31;16143391;19;129220;-58
2022/04/23 17:32:13;;;;;;;3.50;3.20;;;;;;;20.08;31.32;99965.56;16147330;19;129049;-58
2022/04/23 17:37:36;;;;;;;3.70;3.10;;;;;;;20.08;31.59;99973.91;16147405;19;130324;-58
2022/04/23 17:42:58;;;;;;;5.18;3.50;;;;;;;20.06;31.33;99976.16;16146392;19;131620;-58
2022/04/23 17:48:19;;;;;;;6.30;4.07;;;;;;;20.05;31.59;99977.25;16145789;19;128826;-59
2022/04/23 17:53:42;;;;;;;5.50;3.85;;;;;;;20.02;31.67;99975.84;16145644;19;129526;-58
2022/04/23 17:59:04;;;;;;;6.55;3.42;;;;;;;19.99;31.61;99977.25;16143170;19;129507;-58
2022/04/23 18:10:06;;;;;;;7.18;3.47;;;;;;;19.96;31.41;99994.44;16142592;19;129303;-57
2022/04/23 18:15:33;;;;;;;4.82;3.25;;;;;;;19.93;31.48;99995.00;16137643;19;131170;-58
2022/04/23 18:20:55;;;;;;;4.30;3.78;;;;;;;19.90;31.58;100001.09;16143158;19;129391;-58
2022/04/23 18:26:17;;;;;;;5.20;3.28;;;;;;;19.88;31.53;100002.50;16137521;19;129817;-58
2022/04/23 18:31:38;;;;;;;9.27;3.25;;;;;;;19.94;31.65;100001.38;16140161;19;129471;-59
2022/04/23 18:37:01;;;;;;;6.03;2.92;;;;;;;20.15;31.32;100007.78;16137490;19;129912;-58
2022/04/23 18:42:26;;;;;;;8.82;3.33;;;;;;;20.43;31.08;99998.03;16123398;19;131871;-58
2022/04/23 18:47:48;;;;;;;14.50;3.10;;;;;;;20.70;31.29;100002.41;16126352;19;129757;-58
2022/04/23 18:53:09;;;;;;;6.90;3.00;;;;;;;20.93;30.61;100005.69;16138595;19;130407;-58
2022/04/23 18:58:33;;;;;;;7.93;3.40;;;;;;;21.10;30.47;100005.31;16135529;19;129853;-58
2022/04/23 19:03:56;;;;;;;4.85;3.05;;;;;;;21.26;30.65;100019.97;16133426;19;129368;-59
2022/04/23 19:09:18;;;;;;;8.15;3.40;;;;;;;21.37;30.48;100034.66;16136641;19;130492;-57
2022/04/23 19:14:42;;;;;;;4.53;3.45;;;;;;;21.41;30.69;100024.63;16132647;19;129704;-58
2022/04/23 19:20:04;;;;;;;4.15;3.28;;;;;;;21.38;30.36;100036.34;16131924;19;129386;-58
2022/04/23 19:30:54;;;;;;;6.55;3.50;;;;;;;21.21;30.68;100045.88;16134658;19;130016;-57
2022/04/23 19:36:16;;;;;;;6.50;3.50;;;;;;;21.10;31.06;100058.16;16136969;19;129347;-58
2022/04/23 19:41:38;;;;;;;9.27;3.63;;;;;;;20.97;31.11;100058.75;16134353;19;129238;-58
2022/04/23 19:47:00;;;;;;;3.28;2.97;;;;;;;20.87;30.92;100062.41;16131180;19;129271;-59
2022/04/23 19:52:23;;;;;;;8.38;3.28;;;;;;;20.81;31.33;100063.53;16135622;19;129072;-58
2022/04/23 19:57:45;;;;;;;8.00;3.53;;;;;;;20.70;31.74;100069.09;16127841;19;129616;-58
2022/04/23 20:03:08;;;;;;;5.80;3.30;;;;;;;20.62;31.34;100066.06;16131926;19;129870;-58
2022/04/23 20:08:30;;;;;;;11.85;3.40;;;;;;;20.60;31.40;100064.38;16128742;19;129922;-59
2022/04/23 20:13:52;;;;;;;5.43;3.28;;;;;;;20.63;31.53;100064.94;16124067;19;129704;-58
2022/04/23 20:19:13;;;;;;;4.97;2.90;;;;;;;20.67;31.47;100064.09;16121416;19;129640;-58
2022/04/23 20:24:36;;;;;;;5.90;3.25;;;;;;;20.79;31.57;100066.63;16141211;19;128932;-57
2022/04/23 20:29:59;;;;;;;5.85;3.05;;;;;;;20.94;31.43;100067.66;16148126;19;129518;-51
2022/04/23 20:41:05;;;;;;;3.80;3.15;;;;;;;21.05;31.12;100074.84;16142507;19;130964;-55
2022/04/23 20:46:27;;;;;;;5.68;2.97;;;;;;;21.02;31.13;100069.88;16133761;19;131382;-56
2022/04/23 20:51:49;;;;;;;5.85;2.88;;;;;;;20.98;31.28;100077.09;16139441;19;129369;-55
2022/04/23 20:57:10;;;;;;;4.20;2.97;;;;;;;20.90;31.43;100078.53;16137222;19;130044;-56
2022/04/23 21:02:32;;;;;;;3.80;2.75;;;;;;;20.81;31.35;100081.03;16137963;19;131256;-56
2022/04/23 21:07:54;;;;;;;7.28;2.72;;;;;;;20.74;31.27;100074.91;16138976;19;129523;-55
2022/04/23 21:13:16;;;;;;;3.42;2.67;;;;;;;20.68;31.46;100076.88;16133326;19;130996;-55
2022/04/23 21:18:38;;;;;;;3.47;2.55;;;;;;;20.62;31.29;100077.16;16131710;19;130388;-51
2022/04/23 21:24:00;;;;;;;3.05;2.33;;;;;;;20.55;31.46;100071.91;16137815;19;130748;-50
2022/04/23 21:29:22;;;;;;;3.33;2.30;;;;;;;20.48;31.54;100061.06;16134588;19;131190;-55
2022/04/23 21:34:44;;;;;;;2.75;2.40;;;;;;;20.43;31.71;100069.44;16141150;19;129242;-51
2022/04/23 21:40:06;;;;;;;2.92;2.40;;;;;;;20.39;31.78;100073.88;16145038;19;129739;-54
2022/04/23 21:45:31;;;;;;;3.08;2.67;;;;;;;20.35;32.08;100079.16;16133501;19;129445;-53
2022/04/23 21:50:53;;;;;;;2.70;2.42;;;;;;;20.29;32.03;100075.56;16128487;19;130953;-56
2022/04/23 21:56:15;;;;;;;2.85;2.65;;;;;;;20.25;31.56;100068.88;16127776;19;129325;-53
2022/04/23 22:01:36;;;;;;;2.42;2.22;;;;;;;20.22;32.13;100066.66;16133040;19;129556;-52
2022/04/23 22:07:01;;;;;;;2.55;2.35;;;;;;;20.22;32.04;100068.59;16140156;19;132259;-54
2022/04/23 22:12:22;;;;;;;2.58;2.03;;;;;;;20.19;31.86;100069.97;16140031;19;129281;-55
2022/04/23 22:17:45;;;;;;;2.75;2.25;;;;;;;20.19;31.60;100069.16;16142672;19;129458;-50
2022/04/23 22:23:06;;;;;;;2.45;2.25;;;;;;;20.18;31.93;100073.88;16141488;19;128948;-55
2022/04/23 22:28:28;;;;;;;2.50;1.90;;;;;;;20.17;31.54;100065.81;16135185;19;130257;-57
2022/04/23 22:33:50;;;;;;;3.28;2.10;;;;;;;20.16;31.79;100075.25;16138751;19;131013;-56
2022/04/23 22:39:12;;;;;;;3.53;2.40;;;;;;;20.13;31.57;100068.31;16141226;19;128898;-53
2022/04/23 22:44:34;;;;;;;2.67;2.35;;;;;;;20.10;31.88;100066.09;16137951;19;130834;-54
2022/04/23 22:49:56;;;;;;;2.78;2.15;;;;;;;20.10;31.58;100079.97;16140545;19;129548;-55
2022/04/23 22:55:18;;;;;;;2.65;2.28;;;;;;;20.08;31.39;100071.94;16135205;19;129470;-52
2022/04/23 23:00:40;;;;;;;2.70;1.95;;;;;;;20.06;31.65;100071.38;16137450;19;129508;-54
2022/04/23 23:06:03;;;;;;;2.55;2.00;;;;;;;20.03;31.88;100071.91;16134240;19;129124;-51
2022/04/23 23:11:25;;;;;;;2.67;2.08;;;;;;;20.02;31.75;100074.97;16134383;19;129850;-55
2022/04/23 23:16:46;;;;;;;3.45;2.08;;;;;;;20.02;31.78;100069.44;16138881;19;129454;-57
2022/04/23 23:22:09;;;;;;;2.28;2.08;;;;;;;19.98;31.75;100075.50;16138062;19;129819;-54
2022/04/23 23:27:32;;;;;;;2.22;1.67;;;;;;;19.97;31.29;100068.28;16135026;19;129261;-56
2022/04/23 23:32:53;;;;;;;2.58;1.80;;;;;;;19.96;31.42;100060.25;16138593;19;129058;-56
2022/04/23 23:38:15;;;;;;;2.40;1.80;;;;;;;19.94;31.28;100071.59;16135268;19;130057;-55
2022/04/23 23:43:37;;;;;;;2.35;1.80;;;;;;;19.92;31.41;100062.75;16136143;19;129573;-55
2022/04/23 23:48:58;;;;;;;1.90;1.70;;;;;;;19.91;31.38;100052.75;16131897;19;130273;-56
2022/04/23 23:54:20;;;;;;;2.08;1.88;;;;;;;19.89;31.10;100054.09;16132920;19;129712;-56
2022/04/23 23:59:42;;;;;;;1.70;1.60;;;;;;;19.86;31.30;100054.69;16133878;19;130128;-55
